createdAt,value
2022-10-02T00:05:07.520Z,67.37
2022-10-02T00:15:37.545Z,68.17
2022-10-02T00:25:50.454Z,67.33
2022-10-02T00:36:02.069Z,67.29
2022-10-02T00:46:25.316Z,67.07
2022-10-02T00:56:52.728Z,67.54
2022-10-02T01:06:55.325Z,67.32
2022-10-02T01:16:57.690Z,66.85
2022-10-02T01:27:00.009Z,66.31
2022-10-02T01:37:03.147Z,66.12
2022-10-02T01:47:09.740Z,67.44
2022-10-02T01:57:30.242Z,69.59
2022-10-02T02:07:35.689Z,70.12
2022-10-02T02:17:50.922Z,69.17
2022-10-02T02:27:57.875Z,69.79
2022-10-02T02:38:11.487Z,69.79
2022-10-02T02:48:37.190Z,69.74
2022-10-02T02:59:01.034Z,69.34
2022-10-02T03:09:06.200Z,68.66
2022-10-02T03:19:26.006Z,68.10
2022-10-02T03:29:53.262Z,68.40
2022-10-02T03:40:01.721Z,68.13
2022-10-02T03:50:04.173Z,68.05
2022-10-02T04:00:13.087Z,67.18
2022-10-02T04:10:24.473Z,67.89
2022-10-02T04:20:45.819Z,67.20
2022-10-02T04:30:48.057Z,67.25
2022-10-02T04:41:08.270Z,66.92
2022-10-02T04:51:30.748Z,67.22
2022-10-02T05:02:01.553Z,67.56
2022-10-02T05:12:42.442Z,67.48
2022-10-02T05:23:02.792Z,67.67
2022-10-02T05:33:13.992Z,68.07
2022-10-02T05:43:37.924Z,67.41
2022-10-02T05:53:46.663Z,67.34
2022-10-02T06:03:56.013Z,67.31
2022-10-02T06:14:06.238Z,67.70
2022-10-02T06:24:16.915Z,66.25
2022-10-02T06:34:19.716Z,65.62
2022-10-02T06:44:50.104Z,64.90
2022-10-02T06:55:21.331Z,64.87
2022-10-02T07:05:32.664Z,64.11
2022-10-02T07:15:56.212Z,63.47
2022-10-02T07:26:37.874Z,63.90
2022-10-02T07:36:55.219Z,62.33
2022-10-02T07:47:13.049Z,62.37
2022-10-02T07:57:42.472Z,62.63
2022-10-02T08:07:48.646Z,60.52
2022-10-02T08:17:54.249Z,60.33
2022-10-02T08:28:04.584Z,59.40
2022-10-02T08:38:28.372Z,59.13
2022-10-02T08:48:42.762Z,57.99
2022-10-02T08:59:19.150Z,58.16
2022-10-02T09:09:34.124Z,58.23
2022-10-02T09:20:07.155Z,56.45
2022-10-02T09:30:27.289Z,57.62
2022-10-02T09:40:48.879Z,55.80
2022-10-02T09:51:07.406Z,55.30
2022-10-02T10:01:31.451Z,53.38
2022-10-02T10:11:39.698Z,52.98
2022-10-02T10:22:26.879Z,53.06
2022-10-02T10:32:48.262Z,50.65
2022-10-02T10:43:11.636Z,52.25
2022-10-02T10:53:30.346Z,50.88
2022-10-02T11:03:58.441Z,49.95
2022-10-02T11:14:19.791Z,52.10
2022-10-02T11:24:43.765Z,49.62
2022-10-02T11:35:30.326Z,49.45
2022-10-02T11:46:03.531Z,49.60
2022-10-02T11:56:22.773Z,51.03
2022-10-02T12:06:42.236Z,50.42
2022-10-02T12:16:48.988Z,49.57
2022-10-02T12:27:10.320Z,52.76
2022-10-02T12:37:42.773Z,55.80
2022-10-02T12:48:03.681Z,53.88
2022-10-02T12:58:27.073Z,53.12
2022-10-02T13:08:43.166Z,54.43
2022-10-02T13:19:03.306Z,54.07
2022-10-02T13:29:21.501Z,55.39
2022-10-02T13:39:44.961Z,55.83
2022-10-02T13:50:07.785Z,57.08
2022-10-02T14:00:13.663Z,58.44
2022-10-02T14:10:39.673Z,57.89
2022-10-02T14:20:47.799Z,59.71
2022-10-02T14:31:00.006Z,59.14
2022-10-02T14:41:31.596Z,58.73
2022-10-02T14:51:45.797Z,58.58
2022-10-02T15:02:09.031Z,58.89
2022-10-02T15:12:16.285Z,61.27
2022-10-02T15:22:51.539Z,59.08
2022-10-02T15:33:07.437Z,63.48
2022-10-02T15:43:15.142Z,65.01
2022-10-02T15:53:23.376Z,65.78
2022-10-02T16:03:40.958Z,65.90
2022-10-02T16:13:51.562Z,67.84
2022-10-02T16:24:19.578Z,68.64
2022-10-02T16:34:55.866Z,69.43
2022-10-02T16:45:16.810Z,69.92
2022-10-02T16:55:48.888Z,69.73
2022-10-02T17:05:57.497Z,69.80
2022-10-02T17:16:07.608Z,70.61
2022-10-02T17:26:30.627Z,69.64
2022-10-02T17:36:47.964Z,68.96
2022-10-02T17:47:15.463Z,70.44
2022-10-02T17:57:44.091Z,71.24
2022-10-02T18:07:57.609Z,71.77
2022-10-02T18:18:41.655Z,71.58
2022-10-02T18:29:01.170Z,71.99
2022-10-02T18:39:25.336Z,71.24
2022-10-02T18:49:47.142Z,71.88
2022-10-02T19:00:02.730Z,70.16
2022-10-02T19:10:29.479Z,69.14
2022-10-02T19:20:42.623Z,69.16
2022-10-02T19:30:53.288Z,68.49
2022-10-02T19:41:00.509Z,68.43
2022-10-02T19:51:07.454Z,68.07
2022-10-02T20:01:19.065Z,68.16
2022-10-02T20:11:42.675Z,68.59
2022-10-02T20:21:49.668Z,69.46
2022-10-02T20:40:25.895Z,70.06
2022-10-02T20:50:41.474Z,69.94
2022-10-02T21:01:06.249Z,70.20
2022-10-02T21:11:17.508Z,70.46
2022-10-02T21:21:33.639Z,70.09
2022-10-02T21:31:43.629Z,70.22
2022-10-02T21:42:04.251Z,70.74
2022-10-02T21:52:31.158Z,70.83
2022-10-02T22:02:36.490Z,71.59
2022-10-02T22:13:03.753Z,71.68
2022-10-02T22:23:32.927Z,71.87
2022-10-02T22:33:58.478Z,71.56
2022-10-02T22:44:03.864Z,71.34
2022-10-02T22:54:20.714Z,71.40
2022-10-02T23:04:30.925Z,71.78
2022-10-02T23:14:51.283Z,71.28
2022-10-02T23:25:14.497Z,71.73
2022-10-02T23:35:32.632Z,71.92
2022-10-02T23:45:54.182Z,71.87
2022-10-02T23:56:14.723Z,72.73
